sensor_id;sensor_type;location;lat;lon;timestamp;P1;durP1;ratioP1;P2;durP2;ratioP2
75295;SDS011;64623;44.738;37.804;2023-09-08T00:00:01;7.70;;;5.07;;
75295;SDS011;64623;44.738;37.804;2023-09-08T00:01:05;6.30;;;4.80;;
75295;SDS011;64623;44.738;37.804;2023-09-08T00:02:08;6.40;;;5.07;;
75295;SDS011;64623;44.738;37.804;2023-09-08T00:03:12;9.13;;;3.83;;
75295;SDS011;64623;44.738;37.804;2023-09-08T00:04:15;6.65;;;4.45;;
75295;SDS011;64623;44.738;37.804;2023-09-08T00:05:18;6.80;;;5.38;;
75295;SDS011;64623;44.738;37.804;2023-09-08T00:06:21;8.98;;;4.45;;
75295;SDS011;64623;44.738;37.804;2023-09-08T00:07:24;5.22;;;4.72;;
75295;SDS011;64623;44.738;37.804;2023-09-08T00:08:26;6.30;;;4.03;;
75295;SDS011;64623;44.738;37.804;2023-09-08T00:09:29;6.13;;;4.38;;
75295;SDS011;64623;44.738;37.804;2023-09-08T00:10:32;4.95;;;4.22;;
75295;SDS011;64623;44.738;37.804;2023-09-08T00:11:35;9.00;;;4.38;;
75295;SDS011;64623;44.738;37.804;2023-09-08T00:12:38;4.45;;;4.05;;
75295;SDS011;64623;44.738;37.804;2023-09-08T00:13:41;5.00;;;2.50;;
75295;SDS011;64623;44.738;37.804;2023-09-08T00:14:44;4.68;;;3.83;;
75295;SDS011;64623;44.738;37.804;2023-09-08T00:15:47;6.70;;;3.50;;
75295;SDS011;64623;44.738;37.804;2023-09-08T00:16:51;4.07;;;3.67;;
75295;SDS011;64623;44.738;37.804;2023-09-08T00:17:56;4.43;;;3.50;;
75295;SDS011;64623;44.738;37.804;2023-09-08T00:18:59;5.88;;;4.60;;
75295;SDS011;64623;44.738;37.804;2023-09-08T00:20:02;5.10;;;4.07;;
75295;SDS011;64623;44.738;37.804;2023-09-08T00:21:15;5.38;;;4.25;;
75295;SDS011;64623;44.738;37.804;2023-09-08T00:22:18;8.75;;;4.63;;
75295;SDS011;64623;44.738;37.804;2023-09-08T00:23:21;7.07;;;3.78;;
75295;SDS011;64623;44.738;37.804;2023-09-08T00:24:24;4.18;;;3.55;;
75295;SDS011;64623;44.738;37.804;2023-09-08T00:25:27;5.35;;;4.13;;
75295;SDS011;64623;44.738;37.804;2023-09-08T00:26:30;4.60;;;2.45;;
75295;SDS011;64623;44.738;37.804;2023-09-08T00:27:32;5.22;;;3.67;;
75295;SDS011;64623;44.738;37.804;2023-09-08T00:28:35;3.63;;;3.33;;
75295;SDS011;64623;44.738;37.804;2023-09-08T00:29:39;5.30;;;3.85;;
75295;SDS011;64623;44.738;37.804;2023-09-08T00:30:42;5.63;;;4.05;;
75295;SDS011;64623;44.738;37.804;2023-09-08T00:31:45;4.90;;;2.88;;
75295;SDS011;64623;44.738;37.804;2023-09-08T00:32:48;4.15;;;3.42;;
75295;SDS011;64623;44.738;37.804;2023-09-08T00:33:51;3.60;;;3.25;;
75295;SDS011;64623;44.738;37.804;2023-09-08T00:34:54;4.18;;;1.75;;
75295;SDS011;64623;44.738;37.804;2023-09-08T00:35:57;6.20;;;3.22;;
75295;SDS011;64623;44.738;37.804;2023-09-08T00:37:00;3.28;;;2.75;;
75295;SDS011;64623;44.738;37.804;2023-09-08T00:38:09;4.60;;;4.10;;
75295;SDS011;64623;44.738;37.804;2023-09-08T00:39:12;5.70;;;4.68;;
75295;SDS011;64623;44.738;37.804;2023-09-08T00:40:14;6.25;;;4.20;;
75295;SDS011;64623;44.738;37.804;2023-09-08T00:41:19;4.45;;;3.85;;
75295;SDS011;64623;44.738;37.804;2023-09-08T00:42:22;6.13;;;3.42;;
75295;SDS011;64623;44.738;37.804;2023-09-08T00:43:25;2.95;;;1.90;;
75295;SDS011;64623;44.738;37.804;2023-09-08T00:44:28;3.78;;;2.95;;
75295;SDS011;64623;44.738;37.804;2023-09-08T00:45:31;4.53;;;2.65;;
75295;SDS011;64623;44.738;37.804;2023-09-08T00:46:35;5.65;;;3.40;;
75295;SDS011;64623;44.738;37.804;2023-09-08T00:47:38;4.28;;;3.30;;
75295;SDS011;64623;44.738;37.804;2023-09-08T00:48:41;3.88;;;2.95;;
75295;SDS011;64623;44.738;37.804;2023-09-08T00:49:44;6.18;;;2.90;;
75295;SDS011;64623;44.738;37.804;2023-09-08T00:50:47;4.28;;;3.38;;
75295;SDS011;64623;44.738;37.804;2023-09-08T00:51:50;7.28;;;3.80;;
75295;SDS011;64623;44.738;37.804;2023-09-08T00:52:53;4.22;;;3.13;;
75295;SDS011;64623;44.738;37.804;2023-09-08T00:53:56;4.43;;;1.48;;
75295;SDS011;64623;44.738;37.804;2023-09-08T00:54:59;5.18;;;3.38;;
75295;SDS011;64623;44.738;37.804;2023-09-08T00:56:04;5.90;;;3.13;;
75295;SDS011;64623;44.738;37.804;2023-09-08T00:57:08;5.15;;;3.85;;
75295;SDS011;64623;44.738;37.804;2023-09-08T00:58:11;4.78;;;2.88;;
75295;SDS011;64623;44.738;37.804;2023-09-08T00:59:15;4.78;;;2.78;;
75295;SDS011;64623;44.738;37.804;2023-09-08T01:00:18;5.70;;;3.00;;
75295;SDS011;64623;44.738;37.804;2023-09-08T01:01:21;6.93;;;3.20;;
75295;SDS011;64623;44.738;37.804;2023-09-08T01:02:23;5.00;;;3.22;;
75295;SDS011;64623;44.738;37.804;2023-09-08T01:03:26;3.22;;;1.75;;
75295;SDS011;64623;44.738;37.804;2023-09-08T01:04:29;7.20;;;2.97;;
75295;SDS011;64623;44.738;37.804;2023-09-08T01:05:33;4.07;;;3.42;;
75295;SDS011;64623;44.738;37.804;2023-09-08T01:06:36;4.20;;;2.78;;
75295;SDS011;64623;44.738;37.804;2023-09-08T01:07:39;4.63;;;2.83;;
75295;SDS011;64623;44.738;37.804;2023-09-08T01:08:43;4.35;;;1.88;;
75295;SDS011;64623;44.738;37.804;2023-09-08T01:09:46;7.82;;;2.90;;
75295;SDS011;64623;44.738;37.804;2023-09-08T01:10:50;6.68;;;2.72;;
75295;SDS011;64623;44.738;37.804;2023-09-08T01:11:52;4.78;;;3.35;;
75295;SDS011;64623;44.738;37.804;2023-09-08T01:12:57;3.88;;;2.60;;
75295;SDS011;64623;44.738;37.804;2023-09-08T01:14:01;3.25;;;2.17;;
75295;SDS011;64623;44.738;37.804;2023-09-08T01:15:04;4.07;;;2.88;;
75295;SDS011;64623;44.738;37.804;2023-09-08T01:16:08;4.05;;;2.42;;
75295;SDS011;64623;44.738;37.804;2023-09-08T01:17:11;4.90;;;2.40;;
75295;SDS011;64623;44.738;37.804;2023-09-08T01:18:14;3.22;;;2.92;;
75295;SDS011;64623;44.738;37.804;2023-09-08T01:19:17;5.05;;;3.78;;
75295;SDS011;64623;44.738;37.804;2023-09-08T01:25:18;3.88;;;2.70;;
75295;SDS011;64623;44.738;37.804;2023-09-08T01:26:23;5.03;;;2.40;;
75295;SDS011;64623;44.738;37.804;2023-09-08T01:27:31;3.28;;;2.60;;
75295;SDS011;64623;44.738;37.804;2023-09-08T01:28:36;3.70;;;3.08;;
75295;SDS011;64623;44.738;37.804;2023-09-08T01:29:42;4.72;;;2.97;;
75295;SDS011;64623;44.738;37.804;2023-09-08T01:30:46;6.00;;;2.47;;
75295;SDS011;64623;44.738;37.804;2023-09-08T01:31:50;3.45;;;3.15;;
75295;SDS011;64623;44.738;37.804;2023-09-08T01:32:54;4.28;;;2.75;;
75295;SDS011;64623;44.738;37.804;2023-09-08T01:33:59;4.22;;;2.67;;
75295;SDS011;64623;44.738;37.804;2023-09-08T01:35:05;3.45;;;2.33;;
75295;SDS011;64623;44.738;37.804;2023-09-08T01:36:09;3.03;;;1.40;;
75295;SDS011;64623;44.738;37.804;2023-09-08T01:37:12;4.45;;;2.75;;
75295;SDS011;64623;44.738;37.804;2023-09-08T01:38:15;3.70;;;1.65;;
75295;SDS011;64623;44.738;37.804;2023-09-08T01:39:18;4.03;;;2.50;;
75295;SDS011;64623;44.738;37.804;2023-09-08T01:40:21;5.85;;;2.53;;
75295;SDS011;64623;44.738;37.804;2023-09-08T01:41:24;2.78;;;2.40;;
75295;SDS011;64623;44.738;37.804;2023-09-08T01:42:27;2.60;;;2.35;;
75295;SDS011;64623;44.738;37.804;2023-09-08T01:43:30;2.67;;;1.35;;
75295;SDS011;64623;44.738;37.804;2023-09-08T01:44:33;3.45;;;2.30;;
75295;SDS011;64623;44.738;37.804;2023-09-08T01:45:36;2.03;;;1.88;;
75295;SDS011;64623;44.738;37.804;2023-09-08T01:46:39;3.80;;;2.42;;
75295;SDS011;64623;44.738;37.804;2023-09-08T01:47:43;2.30;;;2.00;;
75295;SDS011;64623;44.738;37.804;2023-09-08T01:48:46;3.45;;;1.10;;
75295;SDS011;64623;44.738;37.804;2023-09-08T01:49:49;5.20;;;2.33;;
75295;SDS011;64623;44.738;37.804;2023-09-08T01:50:52;7.68;;;2.75;;
75295;SDS011;64623;44.738;37.804;2023-09-08T01:51:54;2.35;;;1.70;;
75295;SDS011;64623;44.738;37.804;2023-09-08T01:52:58;4.13;;;1.80;;
75295;SDS011;64623;44.738;37.804;2023-09-08T01:54:01;3.25;;;2.22;;
75295;SDS011;64623;44.738;37.804;2023-09-08T01:55:05;5.85;;;2.55;;
75295;SDS011;64623;44.738;37.804;2023-09-08T01:56:09;2.13;;;1.55;;
75295;SDS011;64623;44.738;37.804;2023-09-08T01:57:12;3.53;;;1.00;;
75295;SDS011;64623;44.738;37.804;2023-09-08T01:58:15;2.70;;;2.15;;
75295;SDS011;64623;44.738;37.804;2023-09-08T01:59:19;4.57;;;2.38;;
75295;SDS011;64623;44.738;37.804;2023-09-08T02:00:22;3.38;;;2.88;;
75295;SDS011;64623;44.738;37.804;2023-09-08T02:01:25;9.05;;;2.30;;
75295;SDS011;64623;44.738;37.804;2023-09-08T02:02:27;2.33;;;2.05;;
75295;SDS011;64623;44.738;37.804;2023-09-08T02:03:33;5.35;;;2.63;;
75295;SDS011;64623;44.738;37.804;2023-09-08T02:04:36;3.25;;;2.28;;
75295;SDS011;64623;44.738;37.804;2023-09-08T02:05:39;2.85;;;2.15;;
75295;SDS011;64623;44.738;37.804;2023-09-08T02:06:42;3.25;;;1.90;;
75295;SDS011;64623;44.738;37.804;2023-09-08T02:07:45;4.43;;;2.15;;
75295;SDS011;64623;44.738;37.804;2023-09-08T02:08:48;2.33;;;2.00;;
75295;SDS011;64623;44.738;37.804;2023-09-08T02:09:51;2.03;;;0.80;;
75295;SDS011;64623;44.738;37.804;2023-09-08T02:10:54;4.13;;;2.53;;
75295;SDS011;64623;44.738;37.804;2023-09-08T02:11:57;4.97;;;3.42;;
75295;SDS011;64623;44.738;37.804;2023-09-08T02:13:00;3.20;;;0.95;;
75295;SDS011;64623;44.738;37.804;2023-09-08T02:14:03;4.00;;;2.40;;
75295;SDS011;64623;44.738;37.804;2023-09-08T02:15:06;4.10;;;1.90;;
75295;SDS011;64623;44.738;37.804;2023-09-08T02:16:14;5.00;;;2.25;;
75295;SDS011;64623;44.738;37.804;2023-09-08T02:17:17;2.63;;;2.03;;
75295;SDS011;64623;44.738;37.804;2023-09-08T02:18:20;3.75;;;2.58;;
75295;SDS011;64623;44.738;37.804;2023-09-08T02:19:23;3.55;;;2.58;;
75295;SDS011;64623;44.738;37.804;2023-09-08T02:20:26;2.40;;;2.10;;
75295;SDS011;64623;44.738;37.804;2023-09-08T02:21:29;3.08;;;1.00;;
75295;SDS011;64623;44.738;37.804;2023-09-08T02:22:32;3.88;;;2.15;;
75295;SDS011;64623;44.738;37.804;2023-09-08T02:23:35;3.15;;;2.17;;
75295;SDS011;64623;44.738;37.804;2023-09-08T02:24:38;3.75;;;1.73;;
75295;SDS011;64623;44.738;37.804;2023-09-08T02:25:42;5.50;;;1.88;;
75295;SDS011;64623;44.738;37.804;2023-09-08T02:26:45;3.53;;;2.20;;
75295;SDS011;64623;44.738;37.804;2023-09-08T02:27:48;3.13;;;2.08;;
75295;SDS011;64623;44.738;37.804;2023-09-08T02:28:51;3.22;;;2.17;;
75295;SDS011;64623;44.738;37.804;2023-09-08T02:29:54;4.20;;;0.95;;
75295;SDS011;64623;44.738;37.804;2023-09-08T02:30:57;2.70;;;2.15;;
75295;SDS011;64623;44.738;37.804;2023-09-08T02:32:00;7.30;;;2.00;;
75295;SDS011;64623;44.738;37.804;2023-09-08T02:33:04;2.80;;;2.25;;
75295;SDS011;64623;44.738;37.804;2023-09-08T02:34:08;2.13;;;1.83;;
75295;SDS011;64623;44.738;37.804;2023-09-08T02:35:12;2.63;;;1.85;;
75295;SDS011;64623;44.738;37.804;2023-09-08T02:36:15;2.67;;;2.00;;
75295;SDS011;64623;44.738;37.804;2023-09-08T02:37:18;6.85;;;1.52;;
75295;SDS011;64623;44.738;37.804;2023-09-08T02:38:21;2.67;;;2.45;;
75295;SDS011;64623;44.738;37.804;2023-09-08T02:39:24;3.38;;;2.00;;
75295;SDS011;64623;44.738;37.804;2023-09-08T02:40:29;4.50;;;0.82;;
75295;SDS011;64623;44.738;37.804;2023-09-08T02:41:32;2.47;;;1.90;;
75295;SDS011;64623;44.738;37.804;2023-09-08T02:42:36;2.78;;;2.00;;
75295;SDS011;64623;44.738;37.804;2023-09-08T02:43:39;5.50;;;2.20;;
75295;SDS011;64623;44.738;37.804;2023-09-08T02:44:42;2.78;;;1.70;;
75295;SDS011;64623;44.738;37.804;2023-09-08T02:45:46;2.97;;;1.98;;
75295;SDS011;64623;44.738;37.804;2023-09-08T02:46:49;2.65;;;2.00;;
75295;SDS011;64623;44.738;37.804;2023-09-08T02:47:52;2.50;;;1.73;;
75295;SDS011;64623;44.738;37.804;2023-09-08T02:48:55;5.47;;;2.00;;
75295;SDS011;64623;44.738;37.804;2023-09-08T02:49:58;3.13;;;1.63;;
75295;SDS011;64623;44.738;37.804;2023-09-08T02:51:01;3.80;;;1.60;;
75295;SDS011;64623;44.738;37.804;2023-09-08T02:52:04;2.97;;;1.60;;
75295;SDS011;64623;44.738;37.804;2023-09-08T02:53:07;3.58;;;1.80;;
75295;SDS011;64623;44.738;37.804;2023-09-08T02:54:10;3.95;;;2.05;;
75295;SDS011;64623;44.738;37.804;2023-09-08T02:55:12;5.03;;;1.88;;
75295;SDS011;64623;44.738;37.804;2023-09-08T02:56:16;2.42;;;1.42;;
75295;SDS011;64623;44.738;37.804;2023-09-08T02:57:20;4.50;;;1.85;;
75295;SDS011;64623;44.738;37.804;2023-09-08T02:58:22;4.35;;;0.60;;
75295;SDS011;64623;44.738;37.804;2023-09-08T02:59:26;2.00;;;1.80;;
75295;SDS011;64623;44.738;37.804;2023-09-08T03:00:29;4.10;;;1.40;;
75295;SDS011;64623;44.738;37.804;2023-09-08T03:01:32;4.57;;;1.65;;
75295;SDS011;64623;44.738;37.804;2023-09-08T03:02:34;3.50;;;1.77;;
75295;SDS011;64623;44.738;37.804;2023-09-08T03:03:37;3.45;;;1.67;;
75295;SDS011;64623;44.738;37.804;2023-09-08T03:04:40;3.35;;;1.60;;
75295;SDS011;64623;44.738;37.804;2023-09-08T03:05:44;3.95;;;0.82;;
75295;SDS011;64623;44.738;37.804;2023-09-08T03:06:48;2.38;;;1.65;;
75295;SDS011;64623;44.738;37.804;2023-09-08T03:07:51;2.55;;;0.63;;
75295;SDS011;64623;44.738;37.804;2023-09-08T03:08:55;3.63;;;1.73;;
75295;SDS011;64623;44.738;37.804;2023-09-08T03:09:58;5.60;;;1.95;;
75295;SDS011;64623;44.738;37.804;2023-09-08T03:11:56;2.85;;;0.93;;
75295;SDS011;64623;44.738;37.804;2023-09-08T03:12:59;3.72;;;1.08;;
75295;SDS011;64623;44.738;37.804;2023-09-08T03:14:03;2.90;;;0.98;;
75295;SDS011;64623;44.738;37.804;2023-09-08T03:15:06;3.55;;;1.00;;
75295;SDS011;64623;44.738;37.804;2023-09-08T03:16:09;5.07;;;0.95;;
75295;SDS011;64623;44.738;37.804;2023-09-08T03:17:13;3.85;;;0.80;;
75295;SDS011;64623;44.738;37.804;2023-09-08T03:18:16;2.97;;;0.80;;
75295;SDS011;64623;44.738;37.804;2023-09-08T03:19:19;2.78;;;0.90;;
75295;SDS011;64623;44.738;37.804;2023-09-08T03:20:21;2.20;;;1.05;;
75295;SDS011;64623;44.738;37.804;2023-09-08T03:21:24;5.10;;;1.02;;
75295;SDS011;64623;44.738;37.804;2023-09-08T03:22:27;4.43;;;0.70;;
75295;SDS011;64623;44.738;37.804;2023-09-08T03:23:30;4.05;;;0.90;;
75295;SDS011;64623;44.738;37.804;2023-09-08T03:24:33;3.60;;;1.35;;
75295;SDS011;64623;44.738;37.804;2023-09-08T03:25:36;2.53;;;0.90;;
75295;SDS011;64623;44.738;37.804;2023-09-08T03:26:40;3.13;;;1.17;;
75295;SDS011;64623;44.738;37.804;2023-09-08T03:27:43;4.43;;;1.20;;
75295;SDS011;64623;44.738;37.804;2023-09-08T03:28:46;2.90;;;1.17;;
75295;SDS011;64623;44.738;37.804;2023-09-08T03:29:49;4.55;;;1.25;;
75295;SDS011;64623;44.738;37.804;2023-09-08T03:30:52;3.78;;;1.13;;
75295;SDS011;64623;44.738;37.804;2023-09-08T03:31:55;5.43;;;1.17;;
75295;SDS011;64623;44.738;37.804;2023-09-08T03:32:58;3.88;;;0.80;;
75295;SDS011;64623;44.738;37.804;2023-09-08T03:34:01;3.70;;;0.70;;
75295;SDS011;64623;44.738;37.804;2023-09-08T03:35:05;3.20;;;0.77;;
75295;SDS011;64623;44.738;37.804;2023-09-08T03:36:09;4.55;;;1.17;;
75295;SDS011;64623;44.738;37.804;2023-09-08T03:37:12;6.25;;;1.23;;
75295;SDS011;64623;44.738;37.804;2023-09-08T03:38:17;4.38;;;1.17;;
75295;SDS011;64623;44.738;37.804;2023-09-08T03:39:20;5.53;;;0.60;;
75295;SDS011;64623;44.738;37.804;2023-09-08T03:40:24;5.60;;;1.05;;
75295;SDS011;64623;44.738;37.804;2023-09-08T03:41:26;3.35;;;0.80;;
75295;SDS011;64623;44.738;37.804;2023-09-08T03:42:29;4.88;;;1.10;;
75295;SDS011;64623;44.738;37.804;2023-09-08T03:43:32;2.85;;;0.77;;
75295;SDS011;64623;44.738;37.804;2023-09-08T03:44:36;2.33;;;0.73;;
75295;SDS011;64623;44.738;37.804;2023-09-08T03:45:39;2.97;;;1.33;;
75295;SDS011;64623;44.738;37.804;2023-09-08T03:46:42;2.55;;;0.75;;
75295;SDS011;64623;44.738;37.804;2023-09-08T03:47:45;2.35;;;1.30;;
75295;SDS011;64623;44.738;37.804;2023-09-08T03:48:48;6.22;;;1.00;;
75295;SDS011;64623;44.738;37.804;2023-09-08T03:49:51;3.22;;;0.82;;
75295;SDS011;64623;44.738;37.804;2023-09-08T03:50:53;3.58;;;1.05;;
75295;SDS011;64623;44.738;37.804;2023-09-08T03:51:57;3.88;;;1.13;;
75295;SDS011;64623;44.738;37.804;2023-09-08T03:53:00;5.78;;;1.00;;
75295;SDS011;64623;44.738;37.804;2023-09-08T03:54:03;3.35;;;1.48;;
75295;SDS011;64623;44.738;37.804;2023-09-08T03:55:06;1.83;;;0.98;;
75295;SDS011;64623;44.738;37.804;2023-09-08T03:56:09;5.25;;;1.67;;
75295;SDS011;64623;44.738;37.804;2023-09-08T03:57:12;3.85;;;0.93;;
75295;SDS011;64623;44.738;37.804;2023-09-08T03:58:15;2.78;;;0.90;;
75295;SDS011;64623;44.738;37.804;2023-09-08T03:59:18;7.78;;;1.42;;
75295;SDS011;64623;44.738;37.804;2023-09-08T04:00:21;5.30;;;0.95;;
75295;SDS011;64623;44.738;37.804;2023-09-08T04:01:24;3.72;;;0.73;;
75295;SDS011;64623;44.738;37.804;2023-09-08T04:02:27;8.10;;;1.10;;
75295;SDS011;64623;44.738;37.804;2023-09-08T04:03:30;2.63;;;0.50;;
75295;SDS011;64623;44.738;37.804;2023-09-08T04:04:33;6.80;;;1.00;;
75295;SDS011;64623;44.738;37.804;2023-09-08T04:05:36;3.63;;;0.70;;
75295;SDS011;64623;44.738;37.804;2023-09-08T04:06:39;6.22;;;1.05;;
75295;SDS011;64623;44.738;37.804;2023-09-08T04:07:42;3.67;;;0.73;;
75295;SDS011;64623;44.738;37.804;2023-09-08T04:08:45;11.82;;;1.23;;
75295;SDS011;64623;44.738;37.804;2023-09-08T04:09:48;6.13;;;1.33;;
75295;SDS011;64623;44.738;37.804;2023-09-08T04:10:50;4.63;;;0.80;;
75295;SDS011;64623;44.738;37.804;2023-09-08T04:11:54;5.80;;;0.73;;
75295;SDS011;64623;44.738;37.804;2023-09-08T04:12:57;4.13;;;0.68;;
75295;SDS011;64623;44.738;37.804;2023-09-08T04:14:00;2.92;;;0.88;;
75295;SDS011;64623;44.738;37.804;2023-09-08T04:15:03;7.95;;;1.08;;
75295;SDS011;64623;44.738;37.804;2023-09-08T04:16:06;3.38;;;0.95;;
75295;SDS011;64623;44.738;37.804;2023-09-08T04:17:09;5.97;;;0.98;;
75295;SDS011;64623;44.738;37.804;2023-09-08T04:18:12;8.63;;;1.10;;
75295;SDS011;64623;44.738;37.804;2023-09-08T04:19:15;3.55;;;1.02;;
75295;SDS011;64623;44.738;37.804;2023-09-08T04:20:18;4.47;;;1.00;;
75295;SDS011;64623;44.738;37.804;2023-09-08T04:21:21;4.53;;;1.33;;
75295;SDS011;64623;44.738;37.804;2023-09-08T04:22:24;11.30;;;1.38;;
75295;SDS011;64623;44.738;37.804;2023-09-08T04:23:26;6.00;;;1.00;;
75295;SDS011;64623;44.738;37.804;2023-09-08T04:24:29;4.40;;;0.95;;
75295;SDS011;64623;44.738;37.804;2023-09-08T04:25:36;5.07;;;1.25;;
75295;SDS011;64623;44.738;37.804;2023-09-08T04:26:40;5.88;;;0.82;;
75295;SDS011;64623;44.738;37.804;2023-09-08T04:27:43;8.45;;;1.02;;
75295;SDS011;64623;44.738;37.804;2023-09-08T04:28:47;4.75;;;0.80;;
75295;SDS011;64623;44.738;37.804;2023-09-08T04:29:50;7.63;;;0.93;;
75295;SDS011;64623;44.738;37.804;2023-09-08T04:30:53;4.50;;;1.00;;
75295;SDS011;64623;44.738;37.804;2023-09-08T04:31:56;7.70;;;1.10;;
75295;SDS011;64623;44.738;37.804;2023-09-08T04:32:58;6.90;;;1.15;;
75295;SDS011;64623;44.738;37.804;2023-09-08T04:34:02;2.55;;;1.48;;
75295;SDS011;64623;44.738;37.804;2023-09-08T04:35:05;5.13;;;0.82;;
75295;SDS011;64623;44.738;37.804;2023-09-08T04:36:09;4.72;;;0.80;;
75295;SDS011;64623;44.738;37.804;2023-09-08T04:37:13;6.93;;;1.35;;
75295;SDS011;64623;44.738;37.804;2023-09-08T04:38:16;6.45;;;2.15;;
75295;SDS011;64623;44.738;37.804;2023-09-08T04:39:19;6.15;;;1.08;;
75295;SDS011;64623;44.738;37.804;2023-09-08T04:40:23;6.90;;;1.52;;
75295;SDS011;64623;44.738;37.804;2023-09-08T04:41:25;3.08;;;0.90;;
75295;SDS011;64623;44.738;37.804;2023-09-08T04:42:29;3.55;;;1.08;;
75295;SDS011;64623;44.738;37.804;2023-09-08T04:43:32;2.78;;;1.23;;
75295;SDS011;64623;44.738;37.804;2023-09-08T04:44:35;3.92;;;1.27;;
75295;SDS011;64623;44.738;37.804;2023-09-08T04:45:38;7.53;;;0.93;;
75295;SDS011;64623;44.738;37.804;2023-09-08T04:46:41;3.20;;;0.75;;
75295;SDS011;64623;44.738;37.804;2023-09-08T04:47:44;2.40;;;0.82;;
75295;SDS011;64623;44.738;37.804;2023-09-08T04:48:50;5.40;;;0.88;;
75295;SDS011;64623;44.738;37.804;2023-09-08T04:49:53;4.13;;;1.00;;
75295;SDS011;64623;44.738;37.804;2023-09-08T04:50:57;3.40;;;1.08;;
75295;SDS011;64623;44.738;37.804;2023-09-08T04:52:00;2.13;;;1.13;;
75295;SDS011;64623;44.738;37.804;2023-09-08T04:53:04;3.60;;;1.55;;
75295;SDS011;64623;44.738;37.804;2023-09-08T04:54:07;2.58;;;0.93;;
75295;SDS011;64623;44.738;37.804;2023-09-08T04:55:10;2.00;;;1.13;;
75295;SDS011;64623;44.738;37.804;2023-09-08T04:56:13;3.67;;;1.20;;
75295;SDS011;64623;44.738;37.804;2023-09-08T04:57:17;2.45;;;1.20;;
75295;SDS011;64623;44.738;37.804;2023-09-08T04:58:24;4.90;;;1.05;;
75295;SDS011;64623;44.738;37.804;2023-09-08T04:59:28;3.55;;;0.77;;
75295;SDS011;64623;44.738;37.804;2023-09-08T05:00:30;4.65;;;1.15;;
75295;SDS011;64623;44.738;37.804;2023-09-08T05:01:36;4.18;;;1.05;;
75295;SDS011;64623;44.738;37.804;2023-09-08T05:02:41;5.68;;;1.42;;
75295;SDS011;64623;44.738;37.804;2023-09-08T05:03:44;2.08;;;0.90;;
75295;SDS011;64623;44.738;37.804;2023-09-08T05:04:48;3.17;;;0.77;;
75295;SDS011;64623;44.738;37.804;2023-09-08T05:05:51;4.03;;;1.45;;
75295;SDS011;64623;44.738;37.804;2023-09-08T05:06:54;3.35;;;0.80;;
75295;SDS011;64623;44.738;37.804;2023-09-08T05:07:57;3.95;;;0.88;;
75295;SDS011;64623;44.738;37.804;2023-09-08T05:09:00;3.20;;;0.95;;
75295;SDS011;64623;44.738;37.804;2023-09-08T05:10:05;3.45;;;1.20;;
75295;SDS011;64623;44.738;37.804;2023-09-08T05:11:10;17.15;;;1.83;;
75295;SDS011;64623;44.738;37.804;2023-09-08T05:12:13;6.32;;;1.02;;
75295;SDS011;64623;44.738;37.804;2023-09-08T05:13:16;3.10;;;0.77;;
75295;SDS011;64623;44.738;37.804;2023-09-08T05:14:25;6.40;;;1.10;;
75295;SDS011;64623;44.738;37.804;2023-09-08T05:15:28;7.45;;;1.15;;
75295;SDS011;64623;44.738;37.804;2023-09-08T05:16:40;3.72;;;1.40;;
75295;SDS011;64623;44.738;37.804;2023-09-08T05:17:52;2.97;;;1.25;;
75295;SDS011;64623;44.738;37.804;2023-09-08T05:18:56;7.82;;;1.30;;
75295;SDS011;64623;44.738;37.804;2023-09-08T05:19:59;5.20;;;1.15;;
75295;SDS011;64623;44.738;37.804;2023-09-08T05:21:04;5.03;;;1.00;;
75295;SDS011;64623;44.738;37.804;2023-09-08T05:22:08;5.55;;;1.63;;
75295;SDS011;64623;44.738;37.804;2023-09-08T05:23:11;4.57;;;1.40;;
75295;SDS011;64623;44.738;37.804;2023-09-08T05:24:14;3.45;;;1.23;;
75295;SDS011;64623;44.738;37.804;2023-09-08T05:25:17;2.95;;;0.73;;
75295;SDS011;64623;44.738;37.804;2023-09-08T05:26:19;6.00;;;1.17;;
75295;SDS011;64623;44.738;37.804;2023-09-08T05:27:22;2.30;;;0.65;;
75295;SDS011;64623;44.738;37.804;2023-09-08T05:28:25;5.47;;;1.35;;
75295;SDS011;64623;44.738;37.804;2023-09-08T05:29:29;3.05;;;1.17;;
75295;SDS011;64623;44.738;37.804;2023-09-08T05:30:31;3.42;;;1.00;;
75295;SDS011;64623;44.738;37.804;2023-09-08T05:31:34;4.25;;;1.13;;
75295;SDS011;64623;44.738;37.804;2023-09-08T05:32:37;4.80;;;0.98;;
75295;SDS011;64623;44.738;37.804;2023-09-08T05:33:41;11.68;;;1.45;;
75295;SDS011;64623;44.738;37.804;2023-09-08T05:34:45;1.83;;;0.73;;
75295;SDS011;64623;44.738;37.804;2023-09-08T05:35:48;2.03;;;0.70;;
75295;SDS011;64623;44.738;37.804;2023-09-08T05:36:51;2.65;;;1.05;;
75295;SDS011;64623;44.738;37.804;2023-09-08T05:37:54;3.50;;;1.60;;
75295;SDS011;64623;44.738;37.804;2023-09-08T05:38:57;2.53;;;0.80;;
75295;SDS011;64623;44.738;37.804;2023-09-08T05:40:00;6.10;;;1.05;;
75295;SDS011;64623;44.738;37.804;2023-09-08T05:41:04;4.85;;;0.82;;
75295;SDS011;64623;44.738;37.804;2023-09-08T05:42:07;3.10;;;1.08;;
75295;SDS011;64623;44.738;37.804;2023-09-08T05:43:10;7.50;;;1.40;;
75295;SDS011;64623;44.738;37.804;2023-09-08T05:44:12;3.78;;;1.10;;
75295;SDS011;64623;44.738;37.804;2023-09-08T05:45:15;3.75;;;1.00;;
75295;SDS011;64623;44.738;37.804;2023-09-08T05:46:18;4.35;;;1.02;;
75295;SDS011;64623;44.738;37.804;2023-09-08T05:47:21;3.25;;;0.88;;
75295;SDS011;64623;44.738;37.804;2023-09-08T05:48:25;3.47;;;1.20;;
75295;SDS011;64623;44.738;37.804;2023-09-08T05:49:28;3.30;;;0.93;;
75295;SDS011;64623;44.738;37.804;2023-09-08T05:50:30;8.80;;;1.55;;
75295;SDS011;64623;44.738;37.804;2023-09-08T05:51:33;5.70;;;1.40;;
75295;SDS011;64623;44.738;37.804;2023-09-08T05:52:37;13.63;;;1.25;;
75295;SDS011;64623;44.738;37.804;2023-09-08T05:53:40;4.53;;;1.60;;
75295;SDS011;64623;44.738;37.804;2023-09-08T05:54:44;1.70;;;0.80;;
75295;SDS011;64623;44.738;37.804;2023-09-08T05:55:47;5.15;;;0.90;;
75295;SDS011;64623;44.738;37.804;2023-09-08T05:56:50;2.58;;;1.40;;
75295;SDS011;64623;44.738;37.804;2023-09-08T05:57:53;3.72;;;1.05;;
75295;SDS011;64623;44.738;37.804;2023-09-08T05:58:56;2.95;;;0.90;;
75295;SDS011;64623;44.738;37.804;2023-09-08T06:00:01;3.22;;;1.48;;
75295;SDS011;64623;44.738;37.804;2023-09-08T06:01:14;2.67;;;0.82;;
75295;SDS011;64623;44.738;37.804;2023-09-08T06:02:18;3.53;;;1.25;;
75295;SDS011;64623;44.738;37.804;2023-09-08T06:03:24;5.80;;;1.25;;
75295;SDS011;64623;44.738;37.804;2023-09-08T06:04:27;6.63;;;1.45;;
75295;SDS011;64623;44.738;37.804;2023-09-08T06:05:30;2.72;;;0.90;;
75295;SDS011;64623;44.738;37.804;2023-09-08T06:06:33;3.90;;;1.30;;
75295;SDS011;64623;44.738;37.804;2023-09-08T06:07:36;3.95;;;0.90;;
75295;SDS011;64623;44.738;37.804;2023-09-08T06:08:40;5.38;;;1.08;;
75295;SDS011;64623;44.738;37.804;2023-09-08T06:09:43;4.05;;;1.33;;
75295;SDS011;64623;44.738;37.804;2023-09-08T06:10:46;2.97;;;1.13;;
75295;SDS011;64623;44.738;37.804;2023-09-08T06:11:49;2.88;;;1.27;;
75295;SDS011;64623;44.738;37.804;2023-09-08T06:12:52;6.60;;;1.55;;
75295;SDS011;64623;44.738;37.804;2023-09-08T06:13:55;3.50;;;1.15;;
75295;SDS011;64623;44.738;37.804;2023-09-08T06:15:04;2.92;;;1.55;;
75295;SDS011;64623;44.738;37.804;2023-09-08T06:16:08;3.15;;;1.30;;
75295;SDS011;64623;44.738;37.804;2023-09-08T06:17:12;5.95;;;1.35;;
75295;SDS011;64623;44.738;37.804;2023-09-08T06:18:16;4.22;;;1.20;;
75295;SDS011;64623;44.738;37.804;2023-09-08T06:19:19;3.65;;;1.88;;
75295;SDS011;64623;44.738;37.804;2023-09-08T06:20:22;3.20;;;1.02;;
75295;SDS011;64623;44.738;37.804;2023-09-08T06:21:26;6.05;;;1.20;;